windsock image

Welcome to Bigfield Strip.

anemometer image
     

 Help for dials.  
 
Local Met:

Wind:   
10 Min average:  
267 ° / 3.1 kts (2.6)
257° / 5.9

Temperature:  
11.1°C C
Dew Point:  
9.2°C C
QNH:  
Trend:  
1015.3 mb mb
+0.4mb/hr
BigField Strip. This image updates approximately every minute, it can have a two minute delay.  
 

Humidity:  
88 %
Sunrise:   04:24z
Sunset:   19:37z
Updated:  
  UTC
 
   More met info, trends, radar, history etc. available here   

LUTON Metar   EGGW 070820Z 24011KT 9999 SCT016 SCT021 12/08 Q1015
 
  TAF   2015/05/07 06:15 TAF EGGW 070457Z 0706/0806 24010KT 9999 BKN007 BECMG 0706/0709 SCT040 PROB30 TEMPO 0710/0714 7000 SHRA BECMG 0718/0721 VRB04KT PROB30 0803/0806 8000
 
BENSON Metar   EGUB 070750Z 21009KT 9999 SCT013 BKN020 11/08 Q1016 GRN BECMG SCT025 BLU
 
  TAF   2015/05/07 09:03 TAF TAF EGUB 070758Z 0709/0718 21010KT 9999 SCT025 TEMPO 0709/0711 SCT020
 
Big Field view 1 icon   Big Field view 2 icon   Big Field view 3 icon   Chart AL3a in PDF icon   Chart AL3a in Word icon

WARNING:
This information is provided by the Airstrip unofficial weather station, DO NOT depend on the data provided here for any purpose.
This page is updated for latest Metars & TAF's every 5 minutes. Refresh the browser to check for the lastest.
Page designed for a minimum browser size of 1024x768.
© Copyright 2015 BigField Strip. This page auto generated 08:36 UTC - 07/05/2015   Contact Us
Valid HTML 4.01 Transitional     Windows uptime: 3 Days 6 Hours 1 Minutes 40 Seconds    WD started: 02:40 04/05/15    Free memory: 1489MB     Valid CSS!